<?xml version="1.0" encoding="UTF-8" standalone="no" ?>
<gpx xmlns="http://www.topografix.com/GPX/1/1" xmlns:xsi="http://www.w3.org/2001/XMLSchema-instance" xsi:schemaLocation="http://www.topografix.com/GPX/1/1 http://www.topografix.com/GPX/1/1/gpx.xsd" version="1.1" creator="VisuGPX - https://www.visugpx.com">
  <metadata>
    <name>Puy de Dôme</name>
    <desc><![CDATA[montée au Puy de Dôme depuis le col de Ceyssat et retour par la variante du GR4.]]></desc>
  </metadata>
  <trk>
    <name><![CDATA[2021-07-24 17:39]]></name>
    <desc><![CDATA[<p>Heure de départ: 17:39 24 juil. 2021<br/>Heure d'arrivée: 20:27 24 juil. 2021<br/>Distance: 8,5 km (02:47)<br/>Temps déplacement: 02:18<br/>Vitesse moyenne: 3,02 km/h<br/>Vitesse moyenne mouv.: 3,67 km/h<br/>Vitesse Max.: 6,93 km/h<br/>Altitude minimale: 1065 m<br/>Altitude maximale: 1454 m<br/>Vitesse de montée: 692 m/h<br/>Vitesse de descente: -976,1 m/h<br/>Gain d'altitude: 1133 m<br/>Perte d'altitude: -1133 m<br/>Temps de montée: 01:38<br/>Temps de descente: 01:09<br/></p><hr align="center" width="480" style="height: 2px; width: 517px"/>]]></desc>
    <trkseg>
      <trkpt lat="45.76393" lon="2.95653">
        <ele>1077.2</ele>
        <time>2021-07-24T15:39:58Z</time>
      </trkpt>
      <trkpt lat="45.76405" lon="2.95633">
        <ele>1079</ele>
        <time>2021-07-24T15:42:14Z</time>
      </trkpt>
      <trkpt lat="45.76418" lon="2.95615">
        <ele>1080.6</ele>
        <time>2021-07-24T15:42:37Z</time>
      </trkpt>
      <trkpt lat="45.76433" lon="2.95599">
        <ele>1083.5</ele>
        <time>2021-07-24T15:43:01Z</time>
      </trkpt>
      <trkpt lat="45.76441" lon="2.95575">
        <ele>1083.9</ele>
        <time>2021-07-24T15:43:25Z</time>
      </trkpt>
      <trkpt lat="45.76458" lon="2.95567">
        <ele>1085.5</ele>
        <time>2021-07-24T15:43:47Z</time>
      </trkpt>
      <trkpt lat="45.76475" lon="2.95577">
        <ele>1088.6</ele>
        <time>2021-07-24T15:44:07Z</time>
      </trkpt>
      <trkpt lat="45.76489" lon="2.95594">
        <ele>1092.5</ele>
        <time>2021-07-24T15:44:26Z</time>
      </trkpt>
      <trkpt lat="45.76494" lon="2.95619">
        <ele>1096.1</ele>
        <time>2021-07-24T15:44:45Z</time>
      </trkpt>
      <trkpt lat="45.76497" lon="2.95645">
        <ele>1099.5</ele>
        <time>2021-07-24T15:45:04Z</time>
      </trkpt>
      <trkpt lat="45.76499" lon="2.95671">
        <ele>1103</ele>
        <time>2021-07-24T15:45:25Z</time>
      </trkpt>
      <trkpt lat="45.76502" lon="2.95697">
        <ele>1106.2</ele>
        <time>2021-07-24T15:45:43Z</time>
      </trkpt>
      <trkpt lat="45.76507" lon="2.95723">
        <ele>1109.4</ele>
        <time>2021-07-24T15:46:06Z</time>
      </trkpt>
      <trkpt lat="45.76515" lon="2.95747">
        <ele>1113.6</ele>
        <time>2021-07-24T15:46:32Z</time>
      </trkpt>
      <trkpt lat="45.76531" lon="2.9576">
        <ele>1117.5</ele>
        <time>2021-07-24T15:46:51Z</time>
      </trkpt>
      <trkpt lat="45.76549" lon="2.95772">
        <ele>1121.3</ele>
        <time>2021-07-24T15:47:14Z</time>
      </trkpt>
      <trkpt lat="45.76567" lon="2.95772">
        <ele>1125.8</ele>
        <time>2021-07-24T15:47:32Z</time>
      </trkpt>
      <trkpt lat="45.76583" lon="2.95787">
        <ele>1128.6</ele>
        <time>2021-07-24T15:47:50Z</time>
      </trkpt>
      <trkpt lat="45.76598" lon="2.958">
        <ele>1131.2</ele>
        <time>2021-07-24T15:48:15Z</time>
      </trkpt>
      <trkpt lat="45.76609" lon="2.95821">
        <ele>1132.9</ele>
        <time>2021-07-24T15:48:24Z</time>
      </trkpt>
      <trkpt lat="45.76624" lon="2.95838">
        <ele>1136.4</ele>
        <time>2021-07-24T15:48:37Z</time>
      </trkpt>
      <trkpt lat="45.76633" lon="2.95811">
        <ele>1138.5</ele>
        <time>2021-07-24T15:49:27Z</time>
      </trkpt>
      <trkpt lat="45.76633" lon="2.95785">
        <ele>1138.7</ele>
        <time>2021-07-24T15:49:38Z</time>
      </trkpt>
      <trkpt lat="45.76641" lon="2.95761">
        <ele>1140</ele>
        <time>2021-07-24T15:49:56Z</time>
      </trkpt>
      <trkpt lat="45.76657" lon="2.95749">
        <ele>1142.4</ele>
        <time>2021-07-24T15:50:14Z</time>
      </trkpt>
      <trkpt lat="45.76675" lon="2.95745">
        <ele>1145.3</ele>
        <time>2021-07-24T15:50:33Z</time>
      </trkpt>
      <trkpt lat="45.76694" lon="2.95746">
        <ele>1149</ele>
        <time>2021-07-24T15:50:50Z</time>
      </trkpt>
      <trkpt lat="45.7671" lon="2.95758">
        <ele>1153.7</ele>
        <time>2021-07-24T15:51:12Z</time>
      </trkpt>
      <trkpt lat="45.76716" lon="2.95782">
        <ele>1157.6</ele>
        <time>2021-07-24T15:51:34Z</time>
      </trkpt>
      <trkpt lat="45.76732" lon="2.95798">
        <ele>1163.5</ele>
        <time>2021-07-24T15:51:58Z</time>
      </trkpt>
      <trkpt lat="45.7675" lon="2.95797">
        <ele>1168.4</ele>
        <time>2021-07-24T15:52:23Z</time>
      </trkpt>
      <trkpt lat="45.76766" lon="2.95785">
        <ele>1171.4</ele>
        <time>2021-07-24T15:52:45Z</time>
      </trkpt>
      <trkpt lat="45.76772" lon="2.9581">
        <ele>1177.7</ele>
        <time>2021-07-24T15:53:06Z</time>
      </trkpt>
      <trkpt lat="45.76767" lon="2.95837">
        <ele>1181.2</ele>
        <time>2021-07-24T15:53:50Z</time>
      </trkpt>
      <trkpt lat="45.76763" lon="2.95862">
        <ele>1185.5</ele>
        <time>2021-07-24T15:54:04Z</time>
      </trkpt>
      <trkpt lat="45.76756" lon="2.95888">
        <ele>1188.4</ele>
        <time>2021-07-24T15:54:17Z</time>
      </trkpt>
      <trkpt lat="45.76744" lon="2.95907">
        <ele>1186.5</ele>
        <time>2021-07-24T15:54:31Z</time>
      </trkpt>
      <trkpt lat="45.76737" lon="2.95932">
        <ele>1189.4</ele>
        <time>2021-07-24T15:54:52Z</time>
      </trkpt>
      <trkpt lat="45.76741" lon="2.95958">
        <ele>1197.8</ele>
        <time>2021-07-24T15:55:09Z</time>
      </trkpt>
      <trkpt lat="45.76736" lon="2.95983">
        <ele>1201.9</ele>
        <time>2021-07-24T15:55:32Z</time>
      </trkpt>
      <trkpt lat="45.76728" lon="2.96006">
        <ele>1202.2</ele>
        <time>2021-07-24T15:55:50Z</time>
      </trkpt>
      <trkpt lat="45.76725" lon="2.96032">
        <ele>1205.7</ele>
        <time>2021-07-24T15:56:11Z</time>
      </trkpt>
      <trkpt lat="45.76743" lon="2.96023">
        <ele>1215.3</ele>
        <time>2021-07-24T15:56:42Z</time>
      </trkpt>
      <trkpt lat="45.76756" lon="2.96004">
        <ele>1219.6</ele>
        <time>2021-07-24T15:57:16Z</time>
      </trkpt>
      <trkpt lat="45.76766" lon="2.95981">
        <ele>1219.5</ele>
        <time>2021-07-24T15:57:40Z</time>
      </trkpt>
      <trkpt lat="45.76777" lon="2.95961">
        <ele>1220</ele>
        <time>2021-07-24T15:57:58Z</time>
      </trkpt>
      <trkpt lat="45.76781" lon="2.95986">
        <ele>1230.7</ele>
        <time>2021-07-24T15:59:22Z</time>
      </trkpt>
      <trkpt lat="45.76777" lon="2.96011">
        <ele>1235.2</ele>
        <time>2021-07-24T15:59:40Z</time>
      </trkpt>
      <trkpt lat="45.76773" lon="2.96037">
        <ele>1239.5</ele>
        <time>2021-07-24T16:00:01Z</time>
      </trkpt>
      <trkpt lat="45.76788" lon="2.96021">
        <ele>1245.3</ele>
        <time>2021-07-24T16:01:01Z</time>
      </trkpt>
      <trkpt lat="45.76803" lon="2.96005">
        <ele>1250.5</ele>
        <time>2021-07-24T16:01:21Z</time>
      </trkpt>
      <trkpt lat="45.76814" lon="2.95983">
        <ele>1250.2</ele>
        <time>2021-07-24T16:01:41Z</time>
      </trkpt>
      <trkpt lat="45.7683" lon="2.9597">
        <ele>1255.3</ele>
        <time>2021-07-24T16:01:59Z</time>
      </trkpt>
      <trkpt lat="45.76846" lon="2.95956">
        <ele>1258.2</ele>
        <time>2021-07-24T16:02:17Z</time>
      </trkpt>
      <trkpt lat="45.76861" lon="2.95943">
        <ele>1260.5</ele>
        <time>2021-07-24T16:03:27Z</time>
      </trkpt>
      <trkpt lat="45.76879" lon="2.95947">
        <ele>1271.2</ele>
        <time>2021-07-24T16:04:07Z</time>
      </trkpt>
      <trkpt lat="45.76895" lon="2.95936">
        <ele>1274.3</ele>
        <time>2021-07-24T16:05:07Z</time>
      </trkpt>
      <trkpt lat="45.7689" lon="2.95961">
        <ele>1282.1</ele>
        <time>2021-07-24T16:05:55Z</time>
      </trkpt>
      <trkpt lat="45.76877" lon="2.95979">
        <ele>1282.9</ele>
        <time>2021-07-24T16:06:18Z</time>
      </trkpt>
      <trkpt lat="45.76894" lon="2.95977">
        <ele>1291.4</ele>
        <time>2021-07-24T16:07:08Z</time>
      </trkpt>
      <trkpt lat="45.7691" lon="2.95964">
        <ele>1293.9</ele>
        <time>2021-07-24T16:07:28Z</time>
      </trkpt>
      <trkpt lat="45.76927" lon="2.95953">
        <ele>1297.6</ele>
        <time>2021-07-24T16:07:51Z</time>
      </trkpt>
      <trkpt lat="45.76943" lon="2.95941">
        <ele>1301.6</ele>
        <time>2021-07-24T16:08:13Z</time>
      </trkpt>
      <trkpt lat="45.76946" lon="2.95967">
        <ele>1314.6</ele>
        <time>2021-07-24T16:09:50Z</time>
      </trkpt>
      <trkpt lat="45.76934" lon="2.95988">
        <ele>1316.7</ele>
        <time>2021-07-24T16:10:13Z</time>
      </trkpt>
      <trkpt lat="45.76952" lon="2.95988">
        <ele>1326.5</ele>
        <time>2021-07-24T16:11:15Z</time>
      </trkpt>
      <trkpt lat="45.76946" lon="2.96013">
        <ele>1333.7</ele>
        <time>2021-07-24T16:11:47Z</time>
      </trkpt>
      <trkpt lat="45.76965" lon="2.96013">
        <ele>1343.5</ele>
        <time>2021-07-24T16:12:41Z</time>
      </trkpt>
      <trkpt lat="45.7698" lon="2.96">
        <ele>1347.5</ele>
        <time>2021-07-24T16:13:11Z</time>
      </trkpt>
      <trkpt lat="45.76979" lon="2.96027">
        <ele>1355.6</ele>
        <time>2021-07-24T16:13:38Z</time>
      </trkpt>
      <trkpt lat="45.7697" lon="2.9605">
        <ele>1359.3</ele>
        <time>2021-07-24T16:14:04Z</time>
      </trkpt>
      <trkpt lat="45.76955" lon="2.96065">
        <ele>1357.2</ele>
        <time>2021-07-24T16:14:23Z</time>
      </trkpt>
      <trkpt lat="45.76941" lon="2.96084">
        <ele>1357.3</ele>
        <time>2021-07-24T16:14:45Z</time>
      </trkpt>
      <trkpt lat="45.76928" lon="2.96102">
        <ele>1353</ele>
        <time>2021-07-24T16:15:07Z</time>
      </trkpt>
      <trkpt lat="45.7694" lon="2.96122">
        <ele>1360.7</ele>
        <time>2021-07-24T16:18:23Z</time>
      </trkpt>
      <trkpt lat="45.76958" lon="2.96114">
        <ele>1368.8</ele>
        <time>2021-07-24T16:18:49Z</time>
      </trkpt>
      <trkpt lat="45.76973" lon="2.96101">
        <ele>1375</ele>
        <time>2021-07-24T16:19:11Z</time>
      </trkpt>
      <trkpt lat="45.76989" lon="2.96089">
        <ele>1380.9</ele>
        <time>2021-07-24T16:19:35Z</time>
      </trkpt>
      <trkpt lat="45.77008" lon="2.96084">
        <ele>1387.4</ele>
        <time>2021-07-24T16:19:57Z</time>
      </trkpt>
      <trkpt lat="45.77019" lon="2.96106">
        <ele>1393.1</ele>
        <time>2021-07-24T16:20:20Z</time>
      </trkpt>
      <trkpt lat="45.77029" lon="2.96128">
        <ele>1398</ele>
        <time>2021-07-24T16:20:41Z</time>
      </trkpt>
      <trkpt lat="45.77042" lon="2.96147">
        <ele>1402.1</ele>
        <time>2021-07-24T16:21:05Z</time>
      </trkpt>
      <trkpt lat="45.77056" lon="2.96166">
        <ele>1405.3</ele>
        <time>2021-07-24T16:21:26Z</time>
      </trkpt>
      <trkpt lat="45.77067" lon="2.96187">
        <ele>1407.7</ele>
        <time>2021-07-24T16:21:48Z</time>
      </trkpt>
      <trkpt lat="45.77081" lon="2.96204">
        <ele>1410.9</ele>
        <time>2021-07-24T16:22:16Z</time>
      </trkpt>
      <trkpt lat="45.77088" lon="2.96229">
        <ele>1413.2</ele>
        <time>2021-07-24T16:22:31Z</time>
      </trkpt>
      <trkpt lat="45.77087" lon="2.96256">
        <ele>1414.3</ele>
        <time>2021-07-24T16:22:45Z</time>
      </trkpt>
      <trkpt lat="45.7708" lon="2.96281">
        <ele>1412.3</ele>
        <time>2021-07-24T16:22:58Z</time>
      </trkpt>
      <trkpt lat="45.77079" lon="2.96307">
        <ele>1411</ele>
        <time>2021-07-24T16:23:15Z</time>
      </trkpt>
      <trkpt lat="45.77083" lon="2.96333">
        <ele>1412</ele>
        <time>2021-07-24T16:24:02Z</time>
      </trkpt>
      <trkpt lat="45.77099" lon="2.96346">
        <ele>1415.6</ele>
        <time>2021-07-24T16:24:51Z</time>
      </trkpt>
      <trkpt lat="45.77109" lon="2.96368">
        <ele>1418</ele>
        <time>2021-07-24T16:25:14Z</time>
      </trkpt>
      <trkpt lat="45.77122" lon="2.96387">
        <ele>1422.5</ele>
        <time>2021-07-24T16:25:39Z</time>
      </trkpt>
      <trkpt lat="45.77138" lon="2.96374">
        <ele>1428</ele>
        <time>2021-07-24T16:26:04Z</time>
      </trkpt>
      <trkpt lat="45.77155" lon="2.96361">
        <ele>1432.5</ele>
        <time>2021-07-24T16:26:18Z</time>
      </trkpt>
      <trkpt lat="45.77157" lon="2.96335">
        <ele>1430.8</ele>
        <time>2021-07-24T16:26:45Z</time>
      </trkpt>
      <trkpt lat="45.77169" lon="2.96313">
        <ele>1430.7</ele>
        <time>2021-07-24T16:27:03Z</time>
      </trkpt>
      <trkpt lat="45.77184" lon="2.96297">
        <ele>1429</ele>
        <time>2021-07-24T16:27:48Z</time>
      </trkpt>
      <trkpt lat="45.77201" lon="2.96308">
        <ele>1431</ele>
        <time>2021-07-24T16:28:06Z</time>
      </trkpt>
      <trkpt lat="45.77219" lon="2.9631">
        <ele>1431.8</ele>
        <time>2021-07-24T16:28:25Z</time>
      </trkpt>
      <trkpt lat="45.77236" lon="2.96299">
        <ele>1430.5</ele>
        <time>2021-07-24T16:28:42Z</time>
      </trkpt>
      <trkpt lat="45.77255" lon="2.96295">
        <ele>1429.1</ele>
        <time>2021-07-24T16:28:59Z</time>
      </trkpt>
      <trkpt lat="45.77271" lon="2.96282">
        <ele>1424.1</ele>
        <time>2021-07-24T16:29:15Z</time>
      </trkpt>
      <trkpt lat="45.77289" lon="2.96279">
        <ele>1420.7</ele>
        <time>2021-07-24T16:29:58Z</time>
      </trkpt>
      <trkpt lat="45.77299" lon="2.96301">
        <ele>1421.3</ele>
        <time>2021-07-24T16:32:05Z</time>
      </trkpt>
      <trkpt lat="45.77303" lon="2.96327">
        <ele>1423</ele>
        <time>2021-07-24T16:32:29Z</time>
      </trkpt>
      <trkpt lat="45.77296" lon="2.96351">
        <ele>1428.1</ele>
        <time>2021-07-24T16:32:49Z</time>
      </trkpt>
      <trkpt lat="45.77302" lon="2.96376">
        <ele>1430</ele>
        <time>2021-07-24T16:33:14Z</time>
      </trkpt>
      <trkpt lat="45.77303" lon="2.96402">
        <ele>1433.2</ele>
        <time>2021-07-24T16:33:56Z</time>
      </trkpt>
      <trkpt lat="45.77308" lon="2.96428">
        <ele>1432.2</ele>
        <time>2021-07-24T16:34:21Z</time>
      </trkpt>
      <trkpt lat="45.7731" lon="2.96454">
        <ele>1427.9</ele>
        <time>2021-07-24T16:34:39Z</time>
      </trkpt>
      <trkpt lat="45.77304" lon="2.96479">
        <ele>1427.7</ele>
        <time>2021-07-24T16:34:59Z</time>
      </trkpt>
      <trkpt lat="45.77293" lon="2.96499">
        <ele>1431.4</ele>
        <time>2021-07-24T16:35:24Z</time>
      </trkpt>
      <trkpt lat="45.77278" lon="2.96513">
        <ele>1432.6</ele>
        <time>2021-07-24T16:35:47Z</time>
      </trkpt>
      <trkpt lat="45.77259" lon="2.96518">
        <ele>1439.7</ele>
        <time>2021-07-24T16:36:09Z</time>
      </trkpt>
      <trkpt lat="45.77241" lon="2.96523">
        <ele>1441</ele>
        <time>2021-07-24T16:36:29Z</time>
      </trkpt>
      <trkpt lat="45.77224" lon="2.96512">
        <ele>1443.9</ele>
        <time>2021-07-24T16:38:58Z</time>
      </trkpt>
      <trkpt lat="45.77211" lon="2.96492">
        <ele>1447.3</ele>
        <time>2021-07-24T16:39:15Z</time>
      </trkpt>
      <trkpt lat="45.77207" lon="2.96466">
        <ele>1447.4</ele>
        <time>2021-07-24T16:40:58Z</time>
      </trkpt>
      <trkpt lat="45.77204" lon="2.9644">
        <ele>1447.7</ele>
        <time>2021-07-24T16:43:42Z</time>
      </trkpt>
      <trkpt lat="45.77197" lon="2.96416">
        <ele>1447.2</ele>
        <time>2021-07-24T16:44:04Z</time>
      </trkpt>
      <trkpt lat="45.77191" lon="2.96391">
        <ele>1442.7</ele>
        <time>2021-07-24T16:44:21Z</time>
      </trkpt>
      <trkpt lat="45.77201" lon="2.9637">
        <ele>1440.4</ele>
        <time>2021-07-24T16:44:36Z</time>
      </trkpt>
      <trkpt lat="45.77217" lon="2.96357">
        <ele>1439.6</ele>
        <time>2021-07-24T16:44:52Z</time>
      </trkpt>
      <trkpt lat="45.77232" lon="2.9634">
        <ele>1437.5</ele>
        <time>2021-07-24T16:45:08Z</time>
      </trkpt>
      <trkpt lat="45.77246" lon="2.96323">
        <ele>1435.1</ele>
        <time>2021-07-24T16:45:26Z</time>
      </trkpt>
      <trkpt lat="45.77256" lon="2.96301">
        <ele>1430</ele>
        <time>2021-07-24T16:45:44Z</time>
      </trkpt>
      <trkpt lat="45.77237" lon="2.96296">
        <ele>1430</ele>
        <time>2021-07-24T16:47:49Z</time>
      </trkpt>
      <trkpt lat="45.77221" lon="2.96308">
        <ele>1431.7</ele>
        <time>2021-07-24T16:48:06Z</time>
      </trkpt>
      <trkpt lat="45.77203" lon="2.96312">
        <ele>1431.6</ele>
        <time>2021-07-24T16:48:23Z</time>
      </trkpt>
      <trkpt lat="45.77186" lon="2.96301">
        <ele>1429.6</ele>
        <time>2021-07-24T16:48:38Z</time>
      </trkpt>
      <trkpt lat="45.77168" lon="2.96312">
        <ele>1430.5</ele>
        <time>2021-07-24T16:49:31Z</time>
      </trkpt>
      <trkpt lat="45.77155" lon="2.96332">
        <ele>1430</ele>
        <time>2021-07-24T16:49:48Z</time>
      </trkpt>
      <trkpt lat="45.77148" lon="2.96356">
        <ele>1430.2</ele>
        <time>2021-07-24T16:50:04Z</time>
      </trkpt>
      <trkpt lat="45.77137" lon="2.96376">
        <ele>1427.6</ele>
        <time>2021-07-24T16:50:25Z</time>
      </trkpt>
      <trkpt lat="45.77123" lon="2.96394">
        <ele>1423.3</ele>
        <time>2021-07-24T16:50:53Z</time>
      </trkpt>
      <trkpt lat="45.7711" lon="2.96376">
        <ele>1418.2</ele>
        <time>2021-07-24T16:51:20Z</time>
      </trkpt>
      <trkpt lat="45.771" lon="2.96354">
        <ele>1415.4</ele>
        <time>2021-07-24T16:51:44Z</time>
      </trkpt>
      <trkpt lat="45.77081" lon="2.96354">
        <ele>1409.4</ele>
        <time>2021-07-24T16:52:53Z</time>
      </trkpt>
      <trkpt lat="45.77079" lon="2.96381">
        <ele>1406.2</ele>
        <time>2021-07-24T16:53:15Z</time>
      </trkpt>
      <trkpt lat="45.77075" lon="2.96407">
        <ele>1401.6</ele>
        <time>2021-07-24T16:53:34Z</time>
      </trkpt>
      <trkpt lat="45.7707" lon="2.96432">
        <ele>1396.4</ele>
        <time>2021-07-24T16:53:56Z</time>
      </trkpt>
      <trkpt lat="45.7707" lon="2.96459">
        <ele>1395</ele>
        <time>2021-07-24T16:54:14Z</time>
      </trkpt>
      <trkpt lat="45.77066" lon="2.96485">
        <ele>1390.7</ele>
        <time>2021-07-24T16:54:52Z</time>
      </trkpt>
      <trkpt lat="45.77068" lon="2.96511">
        <ele>1388.5</ele>
        <time>2021-07-24T16:55:15Z</time>
      </trkpt>
      <trkpt lat="45.77073" lon="2.96537">
        <ele>1386.1</ele>
        <time>2021-07-24T16:55:30Z</time>
      </trkpt>
      <trkpt lat="45.7708" lon="2.96562">
        <ele>1385.1</ele>
        <time>2021-07-24T16:55:47Z</time>
      </trkpt>
      <trkpt lat="45.77089" lon="2.96585">
        <ele>1383.3</ele>
        <time>2021-07-24T16:56:05Z</time>
      </trkpt>
      <trkpt lat="45.77102" lon="2.96605">
        <ele>1381.1</ele>
        <time>2021-07-24T16:56:23Z</time>
      </trkpt>
      <trkpt lat="45.77114" lon="2.96624">
        <ele>1377.9</ele>
        <time>2021-07-24T16:56:40Z</time>
      </trkpt>
      <trkpt lat="45.77129" lon="2.9664">
        <ele>1375.7</ele>
        <time>2021-07-24T16:56:59Z</time>
      </trkpt>
      <trkpt lat="45.77145" lon="2.96652">
        <ele>1374.2</ele>
        <time>2021-07-24T16:57:15Z</time>
      </trkpt>
      <trkpt lat="45.77162" lon="2.96665">
        <ele>1371.8</ele>
        <time>2021-07-24T16:57:30Z</time>
      </trkpt>
      <trkpt lat="45.77179" lon="2.96674">
        <ele>1367.1</ele>
        <time>2021-07-24T16:57:46Z</time>
      </trkpt>
      <trkpt lat="45.77196" lon="2.96683">
        <ele>1361.2</ele>
        <time>2021-07-24T16:58:01Z</time>
      </trkpt>
      <trkpt lat="45.77214" lon="2.96686">
        <ele>1358.1</ele>
        <time>2021-07-24T16:58:17Z</time>
      </trkpt>
      <trkpt lat="45.77233" lon="2.96688">
        <ele>1355.1</ele>
        <time>2021-07-24T16:58:33Z</time>
      </trkpt>
      <trkpt lat="45.77251" lon="2.96683">
        <ele>1355.2</ele>
        <time>2021-07-24T16:58:48Z</time>
      </trkpt>
      <trkpt lat="45.77268" lon="2.96674">
        <ele>1353.8</ele>
        <time>2021-07-24T16:59:04Z</time>
      </trkpt>
      <trkpt lat="45.77283" lon="2.96657">
        <ele>1356.8</ele>
        <time>2021-07-24T16:59:22Z</time>
      </trkpt>
      <trkpt lat="45.77298" lon="2.96644">
        <ele>1358.4</ele>
        <time>2021-07-24T16:59:37Z</time>
      </trkpt>
      <trkpt lat="45.77314" lon="2.96632">
        <ele>1358.2</ele>
        <time>2021-07-24T16:59:53Z</time>
      </trkpt>
      <trkpt lat="45.77333" lon="2.96627">
        <ele>1353.1</ele>
        <time>2021-07-24T17:00:10Z</time>
      </trkpt>
      <trkpt lat="45.77351" lon="2.96622">
        <ele>1346.6</ele>
        <time>2021-07-24T17:00:25Z</time>
      </trkpt>
      <trkpt lat="45.77362" lon="2.96643">
        <ele>1332.6</ele>
        <time>2021-07-24T17:00:55Z</time>
      </trkpt>
      <trkpt lat="45.77378" lon="2.96634">
        <ele>1328.6</ele>
        <time>2021-07-24T17:01:33Z</time>
      </trkpt>
      <trkpt lat="45.77395" lon="2.96624">
        <ele>1323.9</ele>
        <time>2021-07-24T17:02:27Z</time>
      </trkpt>
      <trkpt lat="45.77413" lon="2.96618">
        <ele>1317.2</ele>
        <time>2021-07-24T17:02:54Z</time>
      </trkpt>
      <trkpt lat="45.7743" lon="2.96607">
        <ele>1312.2</ele>
        <time>2021-07-24T17:03:31Z</time>
      </trkpt>
      <trkpt lat="45.77446" lon="2.96595">
        <ele>1307.7</ele>
        <time>2021-07-24T17:04:09Z</time>
      </trkpt>
      <trkpt lat="45.77461" lon="2.96577">
        <ele>1304.5</ele>
        <time>2021-07-24T17:04:36Z</time>
      </trkpt>
      <trkpt lat="45.77476" lon="2.96562">
        <ele>1298.8</ele>
        <time>2021-07-24T17:04:57Z</time>
      </trkpt>
      <trkpt lat="45.77488" lon="2.96542">
        <ele>1295.4</ele>
        <time>2021-07-24T17:05:24Z</time>
      </trkpt>
      <trkpt lat="45.775" lon="2.96523">
        <ele>1291.1</ele>
        <time>2021-07-24T17:05:48Z</time>
      </trkpt>
      <trkpt lat="45.77511" lon="2.96502">
        <ele>1289.1</ele>
        <time>2021-07-24T17:06:13Z</time>
      </trkpt>
      <trkpt lat="45.77524" lon="2.96484">
        <ele>1284.7</ele>
        <time>2021-07-24T17:06:45Z</time>
      </trkpt>
      <trkpt lat="45.77536" lon="2.96465">
        <ele>1280.2</ele>
        <time>2021-07-24T17:07:13Z</time>
      </trkpt>
      <trkpt lat="45.77555" lon="2.96466">
        <ele>1272.5</ele>
        <time>2021-07-24T17:08:36Z</time>
      </trkpt>
      <trkpt lat="45.77563" lon="2.96489">
        <ele>1268</ele>
        <time>2021-07-24T17:09:02Z</time>
      </trkpt>
      <trkpt lat="45.7758" lon="2.96483">
        <ele>1260.8</ele>
        <time>2021-07-24T17:09:44Z</time>
      </trkpt>
      <trkpt lat="45.77595" lon="2.96467">
        <ele>1257.1</ele>
        <time>2021-07-24T17:10:07Z</time>
      </trkpt>
      <trkpt lat="45.77608" lon="2.96448">
        <ele>1253.8</ele>
        <time>2021-07-24T17:10:31Z</time>
      </trkpt>
      <trkpt lat="45.77626" lon="2.96448">
        <ele>1248.5</ele>
        <time>2021-07-24T17:11:05Z</time>
      </trkpt>
      <trkpt lat="45.77637" lon="2.9647">
        <ele>1245.2</ele>
        <time>2021-07-24T17:11:22Z</time>
      </trkpt>
      <trkpt lat="45.77656" lon="2.9647">
        <ele>1239.9</ele>
        <time>2021-07-24T17:11:41Z</time>
      </trkpt>
      <trkpt lat="45.77673" lon="2.96458">
        <ele>1235.8</ele>
        <time>2021-07-24T17:11:57Z</time>
      </trkpt>
      <trkpt lat="45.77691" lon="2.96448">
        <ele>1232.6</ele>
        <time>2021-07-24T17:12:11Z</time>
      </trkpt>
      <trkpt lat="45.77709" lon="2.96453">
        <ele>1229.3</ele>
        <time>2021-07-24T17:12:38Z</time>
      </trkpt>
      <trkpt lat="45.77726" lon="2.96445">
        <ele>1226.1</ele>
        <time>2021-07-24T17:12:57Z</time>
      </trkpt>
      <trkpt lat="45.77744" lon="2.96439">
        <ele>1222.7</ele>
        <time>2021-07-24T17:13:16Z</time>
      </trkpt>
      <trkpt lat="45.77762" lon="2.96434">
        <ele>1220.5</ele>
        <time>2021-07-24T17:13:36Z</time>
      </trkpt>
      <trkpt lat="45.7778" lon="2.96431">
        <ele>1219</ele>
        <time>2021-07-24T17:13:54Z</time>
      </trkpt>
      <trkpt lat="45.77799" lon="2.96429">
        <ele>1217.5</ele>
        <time>2021-07-24T17:14:12Z</time>
      </trkpt>
      <trkpt lat="45.77817" lon="2.96428">
        <ele>1216.1</ele>
        <time>2021-07-24T17:14:28Z</time>
      </trkpt>
      <trkpt lat="45.77823" lon="2.96403">
        <ele>1216</ele>
        <time>2021-07-24T17:14:42Z</time>
      </trkpt>
      <trkpt lat="45.77836" lon="2.96386">
        <ele>1215.6</ele>
        <time>2021-07-24T17:14:57Z</time>
      </trkpt>
      <trkpt lat="45.77853" lon="2.96376">
        <ele>1215.3</ele>
        <time>2021-07-24T17:15:12Z</time>
      </trkpt>
      <trkpt lat="45.77872" lon="2.96375">
        <ele>1214.6</ele>
        <time>2021-07-24T17:15:30Z</time>
      </trkpt>
      <trkpt lat="45.77891" lon="2.96378">
        <ele>1213.8</ele>
        <time>2021-07-24T17:15:45Z</time>
      </trkpt>
      <trkpt lat="45.77909" lon="2.96381">
        <ele>1212.8</ele>
        <time>2021-07-24T17:16:02Z</time>
      </trkpt>
      <trkpt lat="45.77928" lon="2.9638">
        <ele>1211.5</ele>
        <time>2021-07-24T17:16:25Z</time>
      </trkpt>
      <trkpt lat="45.77946" lon="2.96384">
        <ele>1209.2</ele>
        <time>2021-07-24T17:16:41Z</time>
      </trkpt>
      <trkpt lat="45.77961" lon="2.964">
        <ele>1206.3</ele>
        <time>2021-07-24T17:16:58Z</time>
      </trkpt>
      <trkpt lat="45.77977" lon="2.96411">
        <ele>1203.3</ele>
        <time>2021-07-24T17:17:13Z</time>
      </trkpt>
      <trkpt lat="45.77995" lon="2.96412">
        <ele>1201</ele>
        <time>2021-07-24T17:17:42Z</time>
      </trkpt>
      <trkpt lat="45.78013" lon="2.96418">
        <ele>1198.1</ele>
        <time>2021-07-24T17:17:54Z</time>
      </trkpt>
      <trkpt lat="45.78029" lon="2.9643">
        <ele>1194.8</ele>
        <time>2021-07-24T17:18:09Z</time>
      </trkpt>
      <trkpt lat="45.78039" lon="2.96452">
        <ele>1191.5</ele>
        <time>2021-07-24T17:18:31Z</time>
      </trkpt>
      <trkpt lat="45.7804" lon="2.96479">
        <ele>1188.7</ele>
        <time>2021-07-24T17:18:47Z</time>
      </trkpt>
      <trkpt lat="45.78047" lon="2.96503">
        <ele>1186.3</ele>
        <time>2021-07-24T17:19:08Z</time>
      </trkpt>
      <trkpt lat="45.78064" lon="2.96509">
        <ele>1185</ele>
        <time>2021-07-24T17:19:28Z</time>
      </trkpt>
      <trkpt lat="45.78083" lon="2.96509">
        <ele>1183.3</ele>
        <time>2021-07-24T17:19:55Z</time>
      </trkpt>
      <trkpt lat="45.78101" lon="2.96509">
        <ele>1179.5</ele>
        <time>2021-07-24T17:20:16Z</time>
      </trkpt>
      <trkpt lat="45.78118" lon="2.96519">
        <ele>1175.7</ele>
        <time>2021-07-24T17:20:38Z</time>
      </trkpt>
      <trkpt lat="45.78136" lon="2.96514">
        <ele>1171.8</ele>
        <time>2021-07-24T17:21:25Z</time>
      </trkpt>
      <trkpt lat="45.78154" lon="2.96524">
        <ele>1167.3</ele>
        <time>2021-07-24T17:21:46Z</time>
      </trkpt>
      <trkpt lat="45.78171" lon="2.96535">
        <ele>1162.5</ele>
        <time>2021-07-24T17:22:00Z</time>
      </trkpt>
      <trkpt lat="45.78187" lon="2.96548">
        <ele>1157.8</ele>
        <time>2021-07-24T17:22:20Z</time>
      </trkpt>
      <trkpt lat="45.78206" lon="2.96554">
        <ele>1153.1</ele>
        <time>2021-07-24T17:22:43Z</time>
      </trkpt>
      <trkpt lat="45.78224" lon="2.96556">
        <ele>1148.6</ele>
        <time>2021-07-24T17:23:02Z</time>
      </trkpt>
      <trkpt lat="45.78243" lon="2.96549">
        <ele>1144.8</ele>
        <time>2021-07-24T17:23:24Z</time>
      </trkpt>
      <trkpt lat="45.78262" lon="2.96544">
        <ele>1141</ele>
        <time>2021-07-24T17:23:42Z</time>
      </trkpt>
      <trkpt lat="45.7828" lon="2.96548">
        <ele>1137.1</ele>
        <time>2021-07-24T17:24:07Z</time>
      </trkpt>
      <trkpt lat="45.78298" lon="2.96547">
        <ele>1133.6</ele>
        <time>2021-07-24T17:24:23Z</time>
      </trkpt>
      <trkpt lat="45.78316" lon="2.96545">
        <ele>1130</ele>
        <time>2021-07-24T17:24:36Z</time>
      </trkpt>
      <trkpt lat="45.78334" lon="2.9655">
        <ele>1126.4</ele>
        <time>2021-07-24T17:24:50Z</time>
      </trkpt>
      <trkpt lat="45.78351" lon="2.96558">
        <ele>1126</ele>
        <time>2021-07-24T17:25:05Z</time>
      </trkpt>
      <trkpt lat="45.78369" lon="2.96568">
        <ele>1125.9</ele>
        <time>2021-07-24T17:25:19Z</time>
      </trkpt>
      <trkpt lat="45.78386" lon="2.96579">
        <ele>1125.9</ele>
        <time>2021-07-24T17:25:35Z</time>
      </trkpt>
      <trkpt lat="45.784" lon="2.96597">
        <ele>1125.8</ele>
        <time>2021-07-24T17:26:25Z</time>
      </trkpt>
      <trkpt lat="45.78417" lon="2.96606">
        <ele>1125.7</ele>
        <time>2021-07-24T17:26:45Z</time>
      </trkpt>
      <trkpt lat="45.78433" lon="2.96617">
        <ele>1127.1</ele>
        <time>2021-07-24T17:27:04Z</time>
      </trkpt>
      <trkpt lat="45.78451" lon="2.96622">
        <ele>1128.7</ele>
        <time>2021-07-24T17:27:26Z</time>
      </trkpt>
      <trkpt lat="45.78468" lon="2.96635">
        <ele>1129.9</ele>
        <time>2021-07-24T17:27:48Z</time>
      </trkpt>
      <trkpt lat="45.78484" lon="2.96647">
        <ele>1131.1</ele>
        <time>2021-07-24T17:28:08Z</time>
      </trkpt>
      <trkpt lat="45.78502" lon="2.96653">
        <ele>1132.4</ele>
        <time>2021-07-24T17:28:30Z</time>
      </trkpt>
      <trkpt lat="45.7852" lon="2.96653">
        <ele>1132.7</ele>
        <time>2021-07-24T17:28:50Z</time>
      </trkpt>
      <trkpt lat="45.78504" lon="2.9664">
        <ele>1132.7</ele>
        <time>2021-07-24T17:35:43Z</time>
      </trkpt>
      <trkpt lat="45.78489" lon="2.96623">
        <ele>1132.1</ele>
        <time>2021-07-24T17:36:09Z</time>
      </trkpt>
      <trkpt lat="45.78471" lon="2.96622">
        <ele>1130.4</ele>
        <time>2021-07-24T17:36:34Z</time>
      </trkpt>
      <trkpt lat="45.78453" lon="2.96616">
        <ele>1128.9</ele>
        <time>2021-07-24T17:37:02Z</time>
      </trkpt>
      <trkpt lat="45.78435" lon="2.96613">
        <ele>1127.3</ele>
        <time>2021-07-24T17:37:27Z</time>
      </trkpt>
      <trkpt lat="45.78418" lon="2.96604">
        <ele>1125.9</ele>
        <time>2021-07-24T17:37:48Z</time>
      </trkpt>
      <trkpt lat="45.78403" lon="2.96588">
        <ele>1125.9</ele>
        <time>2021-07-24T17:38:15Z</time>
      </trkpt>
      <trkpt lat="45.78396" lon="2.96565">
        <ele>1125.6</ele>
        <time>2021-07-24T17:38:35Z</time>
      </trkpt>
      <trkpt lat="45.7839" lon="2.9654">
        <ele>1125.1</ele>
        <time>2021-07-24T17:38:55Z</time>
      </trkpt>
      <trkpt lat="45.78389" lon="2.96514">
        <ele>1124.6</ele>
        <time>2021-07-24T17:39:16Z</time>
      </trkpt>
      <trkpt lat="45.78383" lon="2.96489">
        <ele>1124.4</ele>
        <time>2021-07-24T17:39:35Z</time>
      </trkpt>
      <trkpt lat="45.78378" lon="2.96463">
        <ele>1124</ele>
        <time>2021-07-24T17:39:54Z</time>
      </trkpt>
      <trkpt lat="45.78375" lon="2.96437">
        <ele>1123.5</ele>
        <time>2021-07-24T17:40:11Z</time>
      </trkpt>
      <trkpt lat="45.78372" lon="2.9641">
        <ele>1122.8</ele>
        <time>2021-07-24T17:40:28Z</time>
      </trkpt>
      <trkpt lat="45.78372" lon="2.96384">
        <ele>1121.1</ele>
        <time>2021-07-24T17:40:47Z</time>
      </trkpt>
      <trkpt lat="45.78376" lon="2.96358">
        <ele>1119.5</ele>
        <time>2021-07-24T17:41:05Z</time>
      </trkpt>
      <trkpt lat="45.78379" lon="2.96331">
        <ele>1117.8</ele>
        <time>2021-07-24T17:41:23Z</time>
      </trkpt>
      <trkpt lat="45.78383" lon="2.96305">
        <ele>1114.1</ele>
        <time>2021-07-24T17:41:42Z</time>
      </trkpt>
      <trkpt lat="45.78391" lon="2.96281">
        <ele>1111.1</ele>
        <time>2021-07-24T17:41:59Z</time>
      </trkpt>
      <trkpt lat="45.78403" lon="2.96259">
        <ele>1109</ele>
        <time>2021-07-24T17:42:15Z</time>
      </trkpt>
      <trkpt lat="45.78416" lon="2.96242">
        <ele>1107.6</ele>
        <time>2021-07-24T17:42:36Z</time>
      </trkpt>
      <trkpt lat="45.78431" lon="2.96225">
        <ele>1105</ele>
        <time>2021-07-24T17:42:54Z</time>
      </trkpt>
      <trkpt lat="45.78443" lon="2.96205">
        <ele>1102.1</ele>
        <time>2021-07-24T17:43:12Z</time>
      </trkpt>
      <trkpt lat="45.78461" lon="2.96202">
        <ele>1102.1</ele>
        <time>2021-07-24T17:43:28Z</time>
      </trkpt>
      <trkpt lat="45.78479" lon="2.96196">
        <ele>1101.7</ele>
        <time>2021-07-24T17:43:48Z</time>
      </trkpt>
      <trkpt lat="45.78497" lon="2.96187">
        <ele>1100.9</ele>
        <time>2021-07-24T17:44:09Z</time>
      </trkpt>
      <trkpt lat="45.78507" lon="2.96166">
        <ele>1097.7</ele>
        <time>2021-07-24T17:44:26Z</time>
      </trkpt>
      <trkpt lat="45.78516" lon="2.96143">
        <ele>1094.8</ele>
        <time>2021-07-24T17:45:11Z</time>
      </trkpt>
      <trkpt lat="45.7853" lon="2.96126">
        <ele>1092.7</ele>
        <time>2021-07-24T17:45:26Z</time>
      </trkpt>
      <trkpt lat="45.78545" lon="2.9611">
        <ele>1091.1</ele>
        <time>2021-07-24T17:45:44Z</time>
      </trkpt>
      <trkpt lat="45.78559" lon="2.96091">
        <ele>1089.4</ele>
        <time>2021-07-24T17:46:01Z</time>
      </trkpt>
      <trkpt lat="45.78575" lon="2.96076">
        <ele>1088.4</ele>
        <time>2021-07-24T17:46:17Z</time>
      </trkpt>
      <trkpt lat="45.78587" lon="2.96056">
        <ele>1087.3</ele>
        <time>2021-07-24T17:46:31Z</time>
      </trkpt>
      <trkpt lat="45.786" lon="2.96036">
        <ele>1087</ele>
        <time>2021-07-24T17:46:44Z</time>
      </trkpt>
      <trkpt lat="45.78607" lon="2.96011">
        <ele>1085.8</ele>
        <time>2021-07-24T17:46:58Z</time>
      </trkpt>
      <trkpt lat="45.78616" lon="2.95988">
        <ele>1085</ele>
        <time>2021-07-24T17:47:14Z</time>
      </trkpt>
      <trkpt lat="45.7861" lon="2.95963">
        <ele>1082.8</ele>
        <time>2021-07-24T17:47:30Z</time>
      </trkpt>
      <trkpt lat="45.78603" lon="2.95939">
        <ele>1080.4</ele>
        <time>2021-07-24T17:47:44Z</time>
      </trkpt>
      <trkpt lat="45.78596" lon="2.95914">
        <ele>1077.8</ele>
        <time>2021-07-24T17:47:57Z</time>
      </trkpt>
      <trkpt lat="45.78592" lon="2.95888">
        <ele>1076.3</ele>
        <time>2021-07-24T17:48:11Z</time>
      </trkpt>
      <trkpt lat="45.78588" lon="2.95863">
        <ele>1074.8</ele>
        <time>2021-07-24T17:48:27Z</time>
      </trkpt>
      <trkpt lat="45.78571" lon="2.95853">
        <ele>1073.6</ele>
        <time>2021-07-24T17:48:50Z</time>
      </trkpt>
      <trkpt lat="45.78553" lon="2.95851">
        <ele>1073.4</ele>
        <time>2021-07-24T17:50:11Z</time>
      </trkpt>
      <trkpt lat="45.78534" lon="2.95853">
        <ele>1073.2</ele>
        <time>2021-07-24T17:50:39Z</time>
      </trkpt>
      <trkpt lat="45.78516" lon="2.95854">
        <ele>1073.1</ele>
        <time>2021-07-24T17:51:12Z</time>
      </trkpt>
      <trkpt lat="45.78498" lon="2.95858">
        <ele>1073.2</ele>
        <time>2021-07-24T17:51:29Z</time>
      </trkpt>
      <trkpt lat="45.78479" lon="2.95858">
        <ele>1073.1</ele>
        <time>2021-07-24T17:51:47Z</time>
      </trkpt>
      <trkpt lat="45.78461" lon="2.95858">
        <ele>1073</ele>
        <time>2021-07-24T17:52:06Z</time>
      </trkpt>
      <trkpt lat="45.78443" lon="2.95855">
        <ele>1072.8</ele>
        <time>2021-07-24T17:52:26Z</time>
      </trkpt>
      <trkpt lat="45.78424" lon="2.95854">
        <ele>1072.8</ele>
        <time>2021-07-24T17:52:43Z</time>
      </trkpt>
      <trkpt lat="45.78406" lon="2.95857">
        <ele>1072.7</ele>
        <time>2021-07-24T17:52:58Z</time>
      </trkpt>
      <trkpt lat="45.78387" lon="2.95858">
        <ele>1072.6</ele>
        <time>2021-07-24T17:53:15Z</time>
      </trkpt>
      <trkpt lat="45.78368" lon="2.95858">
        <ele>1072.5</ele>
        <time>2021-07-24T17:53:30Z</time>
      </trkpt>
      <trkpt lat="45.7835" lon="2.95855">
        <ele>1072.4</ele>
        <time>2021-07-24T17:53:44Z</time>
      </trkpt>
      <trkpt lat="45.78332" lon="2.95854">
        <ele>1072.2</ele>
        <time>2021-07-24T17:53:59Z</time>
      </trkpt>
      <trkpt lat="45.78314" lon="2.95848">
        <ele>1072</ele>
        <time>2021-07-24T17:54:12Z</time>
      </trkpt>
      <trkpt lat="45.78296" lon="2.95839">
        <ele>1071.7</ele>
        <time>2021-07-24T17:54:25Z</time>
      </trkpt>
      <trkpt lat="45.78278" lon="2.95834">
        <ele>1071.4</ele>
        <time>2021-07-24T17:54:40Z</time>
      </trkpt>
      <trkpt lat="45.7826" lon="2.9583">
        <ele>1071.1</ele>
        <time>2021-07-24T17:54:56Z</time>
      </trkpt>
      <trkpt lat="45.78242" lon="2.95822">
        <ele>1071.3</ele>
        <time>2021-07-24T17:55:10Z</time>
      </trkpt>
      <trkpt lat="45.78225" lon="2.95812">
        <ele>1071.7</ele>
        <time>2021-07-24T17:55:22Z</time>
      </trkpt>
      <trkpt lat="45.78207" lon="2.95808">
        <ele>1072.2</ele>
        <time>2021-07-24T17:55:45Z</time>
      </trkpt>
      <trkpt lat="45.78193" lon="2.9579">
        <ele>1072.3</ele>
        <time>2021-07-24T17:56:03Z</time>
      </trkpt>
      <trkpt lat="45.78179" lon="2.95772">
        <ele>1072.3</ele>
        <time>2021-07-24T17:56:18Z</time>
      </trkpt>
      <trkpt lat="45.78168" lon="2.95752">
        <ele>1072</ele>
        <time>2021-07-24T17:56:33Z</time>
      </trkpt>
      <trkpt lat="45.78156" lon="2.95731">
        <ele>1073</ele>
        <time>2021-07-24T17:56:50Z</time>
      </trkpt>
      <trkpt lat="45.78149" lon="2.95707">
        <ele>1073.8</ele>
        <time>2021-07-24T17:57:05Z</time>
      </trkpt>
      <trkpt lat="45.78139" lon="2.95684">
        <ele>1075</ele>
        <time>2021-07-24T17:57:26Z</time>
      </trkpt>
      <trkpt lat="45.78133" lon="2.95659">
        <ele>1075.8</ele>
        <time>2021-07-24T17:57:46Z</time>
      </trkpt>
      <trkpt lat="45.78124" lon="2.95637">
        <ele>1076.4</ele>
        <time>2021-07-24T17:58:03Z</time>
      </trkpt>
      <trkpt lat="45.78112" lon="2.95616">
        <ele>1077.2</ele>
        <time>2021-07-24T17:58:23Z</time>
      </trkpt>
      <trkpt lat="45.78104" lon="2.95593">
        <ele>1077.6</ele>
        <time>2021-07-24T17:58:40Z</time>
      </trkpt>
      <trkpt lat="45.78099" lon="2.95569">
        <ele>1077.8</ele>
        <time>2021-07-24T17:59:00Z</time>
      </trkpt>
      <trkpt lat="45.78089" lon="2.95546">
        <ele>1078.5</ele>
        <time>2021-07-24T17:59:14Z</time>
      </trkpt>
      <trkpt lat="45.78079" lon="2.95525">
        <ele>1079.5</ele>
        <time>2021-07-24T17:59:33Z</time>
      </trkpt>
      <trkpt lat="45.78067" lon="2.95504">
        <ele>1080.6</ele>
        <time>2021-07-24T17:59:48Z</time>
      </trkpt>
      <trkpt lat="45.78057" lon="2.95482">
        <ele>1080.2</ele>
        <time>2021-07-24T18:00:03Z</time>
      </trkpt>
      <trkpt lat="45.78048" lon="2.95459">
        <ele>1079.2</ele>
        <time>2021-07-24T18:00:18Z</time>
      </trkpt>
      <trkpt lat="45.78036" lon="2.95437">
        <ele>1077.9</ele>
        <time>2021-07-24T18:00:33Z</time>
      </trkpt>
      <trkpt lat="45.78034" lon="2.9541">
        <ele>1075.6</ele>
        <time>2021-07-24T18:00:50Z</time>
      </trkpt>
      <trkpt lat="45.78019" lon="2.95395">
        <ele>1074.5</ele>
        <time>2021-07-24T18:01:05Z</time>
      </trkpt>
      <trkpt lat="45.78008" lon="2.95373">
        <ele>1072.7</ele>
        <time>2021-07-24T18:01:25Z</time>
      </trkpt>
      <trkpt lat="45.77992" lon="2.95363">
        <ele>1072</ele>
        <time>2021-07-24T18:01:44Z</time>
      </trkpt>
      <trkpt lat="45.77974" lon="2.95355">
        <ele>1071.5</ele>
        <time>2021-07-24T18:02:02Z</time>
      </trkpt>
      <trkpt lat="45.77956" lon="2.95346">
        <ele>1070.9</ele>
        <time>2021-07-24T18:02:19Z</time>
      </trkpt>
      <trkpt lat="45.77939" lon="2.95339">
        <ele>1070.4</ele>
        <time>2021-07-24T18:02:34Z</time>
      </trkpt>
      <trkpt lat="45.77923" lon="2.95328">
        <ele>1069.4</ele>
        <time>2021-07-24T18:02:47Z</time>
      </trkpt>
      <trkpt lat="45.77907" lon="2.95314">
        <ele>1069.4</ele>
        <time>2021-07-24T18:03:02Z</time>
      </trkpt>
      <trkpt lat="45.77891" lon="2.953">
        <ele>1070</ele>
        <time>2021-07-24T18:03:21Z</time>
      </trkpt>
      <trkpt lat="45.77874" lon="2.95289">
        <ele>1070.9</ele>
        <time>2021-07-24T18:03:38Z</time>
      </trkpt>
      <trkpt lat="45.77856" lon="2.95286">
        <ele>1072.6</ele>
        <time>2021-07-24T18:03:52Z</time>
      </trkpt>
      <trkpt lat="45.77837" lon="2.95278">
        <ele>1073.9</ele>
        <time>2021-07-24T18:04:05Z</time>
      </trkpt>
      <trkpt lat="45.7782" lon="2.9527">
        <ele>1074.2</ele>
        <time>2021-07-24T18:04:22Z</time>
      </trkpt>
      <trkpt lat="45.77802" lon="2.95265">
        <ele>1074.2</ele>
        <time>2021-07-24T18:04:37Z</time>
      </trkpt>
      <trkpt lat="45.77783" lon="2.95262">
        <ele>1074.6</ele>
        <time>2021-07-24T18:04:52Z</time>
      </trkpt>
      <trkpt lat="45.77764" lon="2.95262">
        <ele>1075.2</ele>
        <time>2021-07-24T18:05:11Z</time>
      </trkpt>
      <trkpt lat="45.77747" lon="2.95256">
        <ele>1074.7</ele>
        <time>2021-07-24T18:05:31Z</time>
      </trkpt>
      <trkpt lat="45.77729" lon="2.95249">
        <ele>1073.9</ele>
        <time>2021-07-24T18:05:46Z</time>
      </trkpt>
      <trkpt lat="45.7771" lon="2.95243">
        <ele>1073.5</ele>
        <time>2021-07-24T18:05:59Z</time>
      </trkpt>
      <trkpt lat="45.77692" lon="2.95247">
        <ele>1073.8</ele>
        <time>2021-07-24T18:06:16Z</time>
      </trkpt>
      <trkpt lat="45.77674" lon="2.95255">
        <ele>1074.5</ele>
        <time>2021-07-24T18:06:30Z</time>
      </trkpt>
      <trkpt lat="45.77656" lon="2.95264">
        <ele>1074.4</ele>
        <time>2021-07-24T18:06:46Z</time>
      </trkpt>
      <trkpt lat="45.77638" lon="2.95272">
        <ele>1073.7</ele>
        <time>2021-07-24T18:07:05Z</time>
      </trkpt>
      <trkpt lat="45.7762" lon="2.95277">
        <ele>1072.7</ele>
        <time>2021-07-24T18:07:23Z</time>
      </trkpt>
      <trkpt lat="45.77603" lon="2.95288">
        <ele>1072.6</ele>
        <time>2021-07-24T18:07:37Z</time>
      </trkpt>
      <trkpt lat="45.77586" lon="2.95299">
        <ele>1072.7</ele>
        <time>2021-07-24T18:07:51Z</time>
      </trkpt>
      <trkpt lat="45.77569" lon="2.95291">
        <ele>1072.4</ele>
        <time>2021-07-24T18:08:06Z</time>
      </trkpt>
      <trkpt lat="45.77554" lon="2.95276">
        <ele>1071</ele>
        <time>2021-07-24T18:08:20Z</time>
      </trkpt>
      <trkpt lat="45.77541" lon="2.95258">
        <ele>1068.9</ele>
        <time>2021-07-24T18:08:36Z</time>
      </trkpt>
      <trkpt lat="45.77527" lon="2.9524">
        <ele>1066.7</ele>
        <time>2021-07-24T18:08:52Z</time>
      </trkpt>
      <trkpt lat="45.77509" lon="2.9523">
        <ele>1065.9</ele>
        <time>2021-07-24T18:09:08Z</time>
      </trkpt>
      <trkpt lat="45.77492" lon="2.95222">
        <ele>1066</ele>
        <time>2021-07-24T18:09:24Z</time>
      </trkpt>
      <trkpt lat="45.77473" lon="2.95217">
        <ele>1067.9</ele>
        <time>2021-07-24T18:09:41Z</time>
      </trkpt>
      <trkpt lat="45.77454" lon="2.95214">
        <ele>1069.7</ele>
        <time>2021-07-24T18:09:59Z</time>
      </trkpt>
      <trkpt lat="45.77437" lon="2.95206">
        <ele>1070.6</ele>
        <time>2021-07-24T18:10:16Z</time>
      </trkpt>
      <trkpt lat="45.77417" lon="2.95204">
        <ele>1072.6</ele>
        <time>2021-07-24T18:10:34Z</time>
      </trkpt>
      <trkpt lat="45.77398" lon="2.95204">
        <ele>1073</ele>
        <time>2021-07-24T18:10:47Z</time>
      </trkpt>
      <trkpt lat="45.7738" lon="2.952">
        <ele>1072.7</ele>
        <time>2021-07-24T18:11:11Z</time>
      </trkpt>
      <trkpt lat="45.77361" lon="2.95204">
        <ele>1073.9</ele>
        <time>2021-07-24T18:11:26Z</time>
      </trkpt>
      <trkpt lat="45.77343" lon="2.95207">
        <ele>1074.9</ele>
        <time>2021-07-24T18:11:44Z</time>
      </trkpt>
      <trkpt lat="45.77324" lon="2.9521">
        <ele>1076.1</ele>
        <time>2021-07-24T18:11:58Z</time>
      </trkpt>
      <trkpt lat="45.77306" lon="2.95208">
        <ele>1076.1</ele>
        <time>2021-07-24T18:12:13Z</time>
      </trkpt>
      <trkpt lat="45.77288" lon="2.95207">
        <ele>1076.3</ele>
        <time>2021-07-24T18:12:30Z</time>
      </trkpt>
      <trkpt lat="45.77269" lon="2.95211">
        <ele>1077.6</ele>
        <time>2021-07-24T18:12:45Z</time>
      </trkpt>
      <trkpt lat="45.7725" lon="2.95214">
        <ele>1078.6</ele>
        <time>2021-07-24T18:13:01Z</time>
      </trkpt>
      <trkpt lat="45.77232" lon="2.95223">
        <ele>1080.8</ele>
        <time>2021-07-24T18:13:24Z</time>
      </trkpt>
      <trkpt lat="45.77213" lon="2.9523">
        <ele>1082.9</ele>
        <time>2021-07-24T18:13:37Z</time>
      </trkpt>
      <trkpt lat="45.77194" lon="2.95238">
        <ele>1085.2</ele>
        <time>2021-07-24T18:13:53Z</time>
      </trkpt>
      <trkpt lat="45.77176" lon="2.95238">
        <ele>1085.8</ele>
        <time>2021-07-24T18:14:08Z</time>
      </trkpt>
      <trkpt lat="45.77158" lon="2.95236">
        <ele>1085</ele>
        <time>2021-07-24T18:14:27Z</time>
      </trkpt>
      <trkpt lat="45.77139" lon="2.95243">
        <ele>1085.8</ele>
        <time>2021-07-24T18:14:42Z</time>
      </trkpt>
      <trkpt lat="45.77122" lon="2.95254">
        <ele>1087.4</ele>
        <time>2021-07-24T18:15:07Z</time>
      </trkpt>
      <trkpt lat="45.77106" lon="2.95266">
        <ele>1089.4</ele>
        <time>2021-07-24T18:15:42Z</time>
      </trkpt>
      <trkpt lat="45.7709" lon="2.95278">
        <ele>1091.3</ele>
        <time>2021-07-24T18:16:00Z</time>
      </trkpt>
      <trkpt lat="45.77072" lon="2.95288">
        <ele>1092.6</ele>
        <time>2021-07-24T18:17:05Z</time>
      </trkpt>
      <trkpt lat="45.77054" lon="2.95296">
        <ele>1093.2</ele>
        <time>2021-07-24T18:17:30Z</time>
      </trkpt>
      <trkpt lat="45.77035" lon="2.95303">
        <ele>1093.2</ele>
        <time>2021-07-24T18:17:47Z</time>
      </trkpt>
      <trkpt lat="45.77019" lon="2.95316">
        <ele>1094.4</ele>
        <time>2021-07-24T18:18:05Z</time>
      </trkpt>
      <trkpt lat="45.77" lon="2.95321">
        <ele>1093.6</ele>
        <time>2021-07-24T18:18:17Z</time>
      </trkpt>
      <trkpt lat="45.76982" lon="2.95326">
        <ele>1091.5</ele>
        <time>2021-07-24T18:18:32Z</time>
      </trkpt>
      <trkpt lat="45.76965" lon="2.95335">
        <ele>1089.9</ele>
        <time>2021-07-24T18:18:49Z</time>
      </trkpt>
      <trkpt lat="45.76946" lon="2.9534">
        <ele>1087.8</ele>
        <time>2021-07-24T18:19:04Z</time>
      </trkpt>
      <trkpt lat="45.76929" lon="2.95353">
        <ele>1087.6</ele>
        <time>2021-07-24T18:19:17Z</time>
      </trkpt>
      <trkpt lat="45.76911" lon="2.95362">
        <ele>1086.7</ele>
        <time>2021-07-24T18:19:31Z</time>
      </trkpt>
      <trkpt lat="45.76894" lon="2.95371">
        <ele>1086.3</ele>
        <time>2021-07-24T18:19:47Z</time>
      </trkpt>
      <trkpt lat="45.76875" lon="2.95378">
        <ele>1085.2</ele>
        <time>2021-07-24T18:19:59Z</time>
      </trkpt>
      <trkpt lat="45.76859" lon="2.9539">
        <ele>1085.6</ele>
        <time>2021-07-24T18:20:17Z</time>
      </trkpt>
      <trkpt lat="45.76842" lon="2.95399">
        <ele>1085.4</ele>
        <time>2021-07-24T18:20:30Z</time>
      </trkpt>
      <trkpt lat="45.76826" lon="2.95411">
        <ele>1086.2</ele>
        <time>2021-07-24T18:20:45Z</time>
      </trkpt>
      <trkpt lat="45.76808" lon="2.9542">
        <ele>1087.7</ele>
        <time>2021-07-24T18:20:59Z</time>
      </trkpt>
      <trkpt lat="45.76789" lon="2.9542">
        <ele>1087</ele>
        <time>2021-07-24T18:21:18Z</time>
      </trkpt>
      <trkpt lat="45.76771" lon="2.95419">
        <ele>1085.7</ele>
        <time>2021-07-24T18:21:32Z</time>
      </trkpt>
      <trkpt lat="45.76752" lon="2.95416">
        <ele>1084</ele>
        <time>2021-07-24T18:21:48Z</time>
      </trkpt>
      <trkpt lat="45.76734" lon="2.95416">
        <ele>1082.9</ele>
        <time>2021-07-24T18:22:03Z</time>
      </trkpt>
      <trkpt lat="45.76716" lon="2.95423">
        <ele>1083.8</ele>
        <time>2021-07-24T18:22:19Z</time>
      </trkpt>
      <trkpt lat="45.76697" lon="2.9542">
        <ele>1082</ele>
        <time>2021-07-24T18:22:34Z</time>
      </trkpt>
      <trkpt lat="45.76678" lon="2.95427">
        <ele>1082.9</ele>
        <time>2021-07-24T18:22:48Z</time>
      </trkpt>
      <trkpt lat="45.7666" lon="2.95434">
        <ele>1083.2</ele>
        <time>2021-07-24T18:23:04Z</time>
      </trkpt>
      <trkpt lat="45.76643" lon="2.95446">
        <ele>1084.1</ele>
        <time>2021-07-24T18:23:22Z</time>
      </trkpt>
      <trkpt lat="45.76627" lon="2.9546">
        <ele>1085.8</ele>
        <time>2021-07-24T18:23:42Z</time>
      </trkpt>
      <trkpt lat="45.76613" lon="2.95476">
        <ele>1088.1</ele>
        <time>2021-07-24T18:24:00Z</time>
      </trkpt>
      <trkpt lat="45.76596" lon="2.95488">
        <ele>1088.8</ele>
        <time>2021-07-24T18:24:13Z</time>
      </trkpt>
      <trkpt lat="45.76579" lon="2.95501">
        <ele>1089.7</ele>
        <time>2021-07-24T18:24:30Z</time>
      </trkpt>
      <trkpt lat="45.76561" lon="2.95506">
        <ele>1088.8</ele>
        <time>2021-07-24T18:24:49Z</time>
      </trkpt>
      <trkpt lat="45.76543" lon="2.95513">
        <ele>1088</ele>
        <time>2021-07-24T18:25:04Z</time>
      </trkpt>
      <trkpt lat="45.76526" lon="2.95522">
        <ele>1087.4</ele>
        <time>2021-07-24T18:25:20Z</time>
      </trkpt>
      <trkpt lat="45.76507" lon="2.95527">
        <ele>1085.3</ele>
        <time>2021-07-24T18:25:33Z</time>
      </trkpt>
      <trkpt lat="45.76489" lon="2.95535">
        <ele>1084.7</ele>
        <time>2021-07-24T18:25:44Z</time>
      </trkpt>
      <trkpt lat="45.76471" lon="2.95536">
        <ele>1083.7</ele>
        <time>2021-07-24T18:26:01Z</time>
      </trkpt>
      <trkpt lat="45.76453" lon="2.95543">
        <ele>1083</ele>
        <time>2021-07-24T18:26:18Z</time>
      </trkpt>
      <trkpt lat="45.76448" lon="2.95568">
        <ele>1084.5</ele>
        <time>2021-07-24T18:26:49Z</time>
      </trkpt>
      <trkpt lat="45.76442" lon="2.95594">
        <ele>1084.8</ele>
        <time>2021-07-24T18:27:06Z</time>
      </trkpt>
      <trkpt lat="45.76432" lon="2.95618">
        <ele>1083.2</ele>
        <time>2021-07-24T18:27:23Z</time>
      </trkpt>
      <trkpt lat="45.76424" lon="2.95641">
        <ele>1081.5</ele>
        <time>2021-07-24T18:27:39Z</time>
      </trkpt>
      <trkpt lat="45.76407" lon="2.95651">
        <ele>1078.5</ele>
        <time>2021-07-24T18:27:57Z</time>
      </trkpt>
    </trkseg>
  </trk>
</gpx>